Time;durP1;ratioP1;P1;durP2;ratioP2;P2;SDS_P1;SDS_P2;PMS_P1;PMS_P2;Temp;Humidity;BMP_temperature;BMP_pressure;BME280_temperature;BME280_humidity;BME280_pressure;Samples;Min_cycle;Max_cycle;Signal;HPM_P1;HPM_P2
2021/08/26 00:00:56;;;;;;;13.10;11.70;;;16.70;99.90;;;;;;5061636;28;20221;-72
2021/08/26 00:06:06;;;;;;;16.30;12.87;;;16.70;99.90;;;;;;5057095;28;20439;-72
2021/08/26 00:08:32;;;;;;;16.47;14.77;;;16.70;99.90;;;;;;5060572;28;20905;-72
2021/08/26 00:10:58;;;;;;;15.10;13.60;;;16.70;99.90;;;;;;5063014;28;20194;-72
2021/08/26 00:13:24;;;;;;;15.50;14.00;;;16.70;99.90;;;;;;5061862;28;20570;-72
2021/08/26 00:15:50;;;;;;;16.50;14.50;;;16.60;99.90;;;;;;5042076;28;20463;-72
2021/08/26 00:18:19;;;;;;;13.90;12.47;;;16.60;99.90;;;;;;5041679;28;20509;-71
2021/08/26 00:20:49;;;;;;;13.87;12.20;;;16.50;99.90;;;;;;5052288;28;20477;-74
2021/08/26 00:23:15;;;;;;;12.40;11.20;;;16.40;99.90;;;;;;5058366;28;20394;-72
2021/08/26 00:25:41;;;;;;;12.13;10.90;;;16.20;99.90;;;;;;5058215;28;20409;-73
2021/08/26 00:28:06;;;;;;;13.13;11.80;;;16.10;99.90;;;;;;5057132;28;20196;-72
2021/08/26 00:30:32;;;;;;;16.13;12.23;;;16.00;99.90;;;;;;5038577;28;20218;-72
2021/08/26 00:32:57;;;;;;;14.83;10.93;;;16.00;99.90;;;;;;5057756;28;20178;-72
2021/08/26 00:35:23;;;;;;;12.70;11.10;;;15.90;99.90;;;;;;5057443;28;20238;-72
2021/08/26 00:37:48;;;;;;;13.10;11.53;;;15.80;99.90;;;;;;5041142;28;20182;-72
2021/08/26 00:40:14;;;;;;;11.77;10.50;;;15.80;99.90;;;;;;5030463;28;20238;-73
2021/08/26 00:42:40;;;;;;;12.70;11.30;;;15.90;99.90;;;;;;5045546;28;20434;-72
2021/08/26 00:45:06;;;;;;;11.47;10.27;;;16.10;99.90;;;;;;5041568;28;20428;-72
2021/08/26 00:47:33;;;;;;;9.50;8.53;;;16.10;99.90;;;;;;5059476;28;20170;-73
2021/08/26 00:49:59;;;;;;;9.67;8.67;;;16.20;99.90;;;;;;5059295;28;20424;-73
2021/08/26 00:52:25;;;;;;;10.77;7.83;;;16.30;99.90;;;;;;5061998;28;20467;-72
2021/08/26 00:54:51;;;;;;;8.67;7.77;;;16.30;99.90;;;;;;5043781;28;20715;-72
2021/08/26 00:57:17;;;;;;;7.33;6.63;;;16.30;99.90;;;;;;5061691;28;20435;-72
2021/08/26 00:59:42;;;;;;;8.67;7.77;;;16.30;99.90;;;;;;5061473;28;20436;-72
2021/08/26 01:02:16;;;;;;;8.33;7.30;;;16.40;99.90;;;;;;5043235;28;20220;-72
2021/08/26 01:04:51;;;;;;;7.83;7.03;;;16.40;99.90;;;;;;5061288;28;20174;-72
2021/08/26 01:07:27;;;;;;;7.73;6.93;;;16.40;99.90;;;;;;5062452;28;20498;-72
2021/08/26 01:10:02;;;;;;;8.13;7.30;;;16.40;99.90;;;;;;5062566;28;20428;-72
2021/08/26 01:12:30;;;;;;;9.60;7.10;;;16.30;99.90;;;;;;5059761;28;20428;-72
2021/08/26 01:14:56;;;;;;;7.93;7.07;;;16.40;99.90;;;;;;5059571;28;20449;-72
2021/08/26 01:17:27;;;;;;;8.50;7.43;;;16.50;99.90;;;;;;5059939;28;20944;-72
2021/08/26 01:19:54;;;;;;;8.73;7.77;;;16.40;99.90;;;;;;5062422;28;20850;-72
2021/08/26 01:22:22;;;;;;;8.73;7.83;;;16.40;99.90;;;;;;5062144;28;20532;-72
2021/08/26 01:25:09;;;;;;;8.50;7.60;;;16.40;99.90;;;;;;5066915;28;20420;-72
2021/08/26 01:27:40;;;;;;;7.70;6.87;;;16.20;99.90;;;;;;5052704;28;20493;-72
2021/08/26 01:30:08;;;;;;;9.63;8.40;;;16.20;99.90;;;;;;5059614;28;20420;-72
2021/08/26 01:32:34;;;;;;;8.63;7.40;;;16.20;99.90;;;;;;5041469;28;20423;-72
2021/08/26 01:35:01;;;;;;;7.53;6.73;;;16.20;99.90;;;;;;5059471;28;20951;-72
2021/08/26 01:37:27;;;;;;;8.50;7.63;;;16.20;99.90;;;;;;5040831;28;20420;-72
2021/08/26 01:39:54;;;;;;;8.17;7.37;;;16.20;99.90;;;;;;5058591;28;20401;-72
2021/08/26 01:42:24;;;;;;;9.20;8.00;;;16.30;99.90;;;;;;5059082;28;20185;-72
2021/08/26 01:44:51;;;;;;;8.77;7.53;;;16.30;99.90;;;;;;5044967;28;20470;-72
2021/08/26 01:47:20;;;;;;;7.87;7.07;;;16.20;99.90;;;;;;5044723;28;20423;-72
2021/08/26 01:49:47;;;;;;;8.50;6.77;;;16.10;99.90;;;;;;5062165;28;20409;-72
2021/08/26 01:52:15;;;;;;;8.37;6.60;;;16.10;99.90;;;;;;5064403;28;20424;-72
2021/08/26 01:54:56;;;;;;;7.00;5.27;;;16.00;99.90;;;;;;5064231;28;20398;-72
2021/08/26 01:57:24;;;;;;;7.20;6.40;;;15.90;99.90;;;;;;5063109;28;20937;-72
2021/08/26 01:59:50;;;;;;;7.07;5.40;;;15.60;99.90;;;;;;5062066;28;20885;-72
2021/08/26 02:02:15;;;;;;;7.90;5.70;;;15.50;99.90;;;;;;5063063;28;20463;-72
2021/08/26 02:04:41;;;;;;;5.63;5.10;;;15.40;99.90;;;;;;5063550;28;20169;-72
2021/08/26 02:07:07;;;;;;;6.13;5.53;;;15.50;99.90;;;;;;5063184;28;20166;-72
2021/08/26 02:09:33;;;;;;;6.10;4.87;;;15.40;99.90;;;;;;5061533;28;20174;-72
2021/08/26 02:11:59;;;;;;;5.40;4.90;;;15.50;99.90;;;;;;5061572;28;20452;-72
2021/08/26 02:14:24;;;;;;;5.87;3.80;;;15.60;99.90;;;;;;5061772;28;20413;-72
2021/08/26 02:16:50;;;;;;;4.50;3.23;;;15.70;99.90;;;;;;5061964;28;20175;-72
2021/08/26 02:19:16;;;;;;;5.13;3.03;;;15.60;99.90;;;;;;5061603;28;20245;-72
2021/08/26 02:21:41;;;;;;;3.33;2.80;;;15.50;99.90;;;;;;5061540;28;20225;-72
2021/08/26 02:24:07;;;;;;;4.50;2.80;;;15.50;99.90;;;;;;5061589;28;20497;-72
2021/08/26 02:26:33;;;;;;;7.07;3.33;;;15.50;99.90;;;;;;5060395;28;20189;-72
2021/08/26 02:28:59;;;;;;;4.53;3.03;;;15.50;99.90;;;;;;5045630;28;20198;-72
2021/08/26 02:31:25;;;;;;;6.73;3.10;;;15.50;99.90;;;;;;5064923;28;20428;-72
2021/08/26 02:33:51;;;;;;;5.10;2.70;;;15.60;99.90;;;;;;5062420;28;20240;-72
2021/08/26 02:36:16;;;;;;;3.87;3.20;;;15.70;99.90;;;;;;5047802;28;20429;-71
2021/08/26 02:38:42;;;;;;;5.93;3.00;;;15.70;99.90;;;;;;5065444;28;20174;-72
2021/08/26 02:41:07;;;;;;;3.90;2.93;;;15.70;99.90;;;;;;5063007;28;20218;-72
2021/08/26 02:43:33;;;;;;;4.40;2.93;;;15.70;99.90;;;;;;5061275;28;20178;-73
2021/08/26 02:45:59;;;;;;;5.77;2.90;;;15.60;99.90;;;;;;5058485;28;20261;-73
2021/08/26 02:48:25;;;;;;;2.97;2.50;;;15.60;99.90;;;;;;5056006;28;20170;-73
2021/08/26 02:50:50;;;;;;;4.50;2.93;;;15.60;99.90;;;;;;5056207;28;20186;-73
2021/08/26 02:53:16;;;;;;;4.70;3.10;;;15.50;99.90;;;;;;5038253;28;20707;-74
2021/08/26 02:55:42;;;;;;;4.60;3.30;;;15.40;99.90;;;;;;5059788;28;20185;-72
2021/08/26 02:58:07;;;;;;;3.70;3.40;;;15.40;99.90;;;;;;5043976;28;20170;-72
2021/08/26 03:00:33;;;;;;;4.20;3.30;;;15.30;99.90;;;;;;5062618;28;20186;-73
2021/08/26 03:02:58;;;;;;;4.00;3.60;;;15.30;99.90;;;;;;5062170;28;20648;-73
2021/08/26 03:05:24;;;;;;;6.97;3.50;;;15.30;99.90;;;;;;5060780;28;20636;-73
2021/08/26 03:07:49;;;;;;;7.33;3.37;;;15.50;99.90;;;;;;5044498;28;20174;-73
2021/08/26 03:10:15;;;;;;;6.43;3.40;;;15.50;99.90;;;;;;5061804;28;20190;-73
2021/08/26 03:12:40;;;;;;;4.80;3.63;;;15.50;99.90;;;;;;5062673;28;20201;-73
2021/08/26 03:15:07;;;;;;;3.10;2.90;;;15.50;99.90;;;;;;5061488;28;20269;-73
2021/08/26 03:17:32;;;;;;;8.83;3.60;;;15.40;99.90;;;;;;5061711;28;20239;-73
2021/08/26 03:19:58;;;;;;;4.43;3.17;;;15.30;99.90;;;;;;5060825;28;20437;-73
2021/08/26 03:22:23;;;;;;;5.03;4.03;;;15.30;99.90;;;;;;5060925;28;20202;-73
2021/08/26 03:24:49;;;;;;;6.70;3.70;;;15.30;99.90;;;;;;5061518;28;20193;-73
2021/08/26 03:27:14;;;;;;;5.80;4.13;;;15.30;99.90;;;;;;5043616;28;20201;-73
2021/08/26 03:29:40;;;;;;;5.40;3.40;;;15.30;99.90;;;;;;5060930;28;20174;-73
2021/08/26 03:32:06;;;;;;;10.20;4.20;;;15.30;99.90;;;;;;5060417;28;20686;-73
2021/08/26 03:34:31;;;;;;;6.20;3.47;;;15.30;99.90;;;;;;5042794;28;20267;-73
2021/08/26 03:36:57;;;;;;;4.97;3.40;;;15.30;99.90;;;;;;5060547;28;20246;-73
2021/08/26 03:39:22;;;;;;;12.60;4.23;;;15.30;99.90;;;;;;5066951;28;20197;-73
2021/08/26 03:41:48;;;;;;;6.33;3.37;;;15.30;99.90;;;;;;5075150;28;20213;-73
2021/08/26 03:44:14;;;;;;;5.57;3.10;;;15.30;99.90;;;;;;5063137;28;20172;-73
2021/08/26 03:46:39;;;;;;;7.40;4.33;;;15.30;99.90;;;;;;5057105;28;20289;-72
2021/08/26 03:49:05;;;;;;;13.60;4.57;;;15.30;99.90;;;;;;5062448;28;20170;-73
2021/08/26 03:51:30;;;;;;;8.03;3.90;;;15.20;99.90;;;;;;5060950;28;20194;-73
2021/08/26 03:53:56;;;;;;;8.40;3.60;;;15.10;99.90;;;;;;5060378;28;20257;-73
2021/08/26 03:56:22;;;;;;;8.10;3.70;;;15.10;99.90;;;;;;5061023;28;20209;-73
2021/08/26 03:58:47;;;;;;;8.43;3.97;;;15.00;99.90;;;;;;5060561;28;20424;-72
2021/08/26 04:01:13;;;;;;;6.60;3.57;;;15.10;99.90;;;;;;5063886;28;20294;-73
2021/08/26 04:03:38;;;;;;;7.40;4.23;;;15.00;99.90;;;;;;5061296;28;20170;-72
2021/08/26 04:06:04;;;;;;;7.43;4.10;;;15.00;99.90;;;;;;5061118;28;20170;-72
2021/08/26 04:08:29;;;;;;;5.97;3.23;;;15.00;99.90;;;;;;5061702;28;20281;-72
2021/08/26 04:10:55;;;;;;;6.20;3.17;;;15.10;99.90;;;;;;5054351;28;20685;-72
2021/08/26 04:13:20;;;;;;;9.07;3.70;;;15.20;99.90;;;;;;5081778;28;20189;-72
2021/08/26 04:15:47;;;;;;;8.83;3.37;;;15.40;99.90;;;;;;5063569;28;20166;-72
2021/08/26 04:18:13;;;;;;;4.53;3.53;;;15.40;99.90;;;;;;5074604;28;20175;-72
2021/08/26 04:20:39;;;;;;;6.13;3.30;;;15.30;99.90;;;;;;5038899;28;20439;-73
2021/08/26 04:23:06;;;;;;;8.23;4.70;;;15.30;99.90;;;;;;5039576;28;20206;-72
2021/08/26 04:25:32;;;;;;;6.40;3.43;;;15.10;99.90;;;;;;5039004;28;20181;-73
2021/08/26 04:27:57;;;;;;;11.47;3.93;;;15.10;99.90;;;;;;5056341;28;20405;-73
2021/08/26 04:30:23;;;;;;;12.27;4.30;;;15.00;99.90;;;;;;5057495;28;20436;-72
2021/08/26 04:32:48;;;;;;;4.23;2.80;;;14.90;99.90;;;;;;5062326;28;20257;-72
2021/08/26 04:35:14;;;;;;;10.03;4.03;;;14.90;99.90;;;;;;5075280;28;20178;-72
2021/08/26 04:37:39;;;;;;;8.50;3.77;;;14.80;99.90;;;;;;5061773;28;20198;-73
2021/08/26 04:40:05;;;;;;;7.47;3.30;;;14.90;99.90;;;;;;5063208;28;20240;-72
2021/08/26 04:42:31;;;;;;;7.00;3.50;;;14.90;99.90;;;;;;5073376;28;20273;-73
2021/08/26 04:44:57;;;;;;;8.40;3.90;;;14.80;99.90;;;;;;5071537;28;20481;-72
2021/08/26 04:47:22;;;;;;;4.67;3.53;;;14.80;99.90;;;;;;5064008;28;20184;-72
2021/08/26 04:49:48;;;;;;;7.47;3.90;;;14.90;99.90;;;;;;5074515;28;20182;-72
2021/08/26 04:52:13;;;;;;;7.90;4.13;;;14.90;99.90;;;;;;5077035;28;20221;-72
2021/08/26 04:54:39;;;;;;;8.20;4.57;;;14.90;99.90;;;;;;5063633;28;20178;-72
2021/08/26 04:57:05;;;;;;;4.57;3.20;;;14.90;99.90;;;;;;5061006;28;20178;-72
2021/08/26 04:59:30;;;;;;;8.00;3.93;;;15.00;99.90;;;;;;5042765;28;20249;-73
2021/08/26 05:01:56;;;;;;;8.67;4.60;;;15.00;99.90;;;;;;5059872;28;20608;-73
2021/08/26 05:04:24;;;;;;;4.77;4.10;;;15.00;99.90;;;;;;5059308;28;20190;-73
2021/08/26 05:06:51;;;;;;;8.67;4.00;;;15.00;99.90;;;;;;5056144;28;20208;-72
2021/08/26 05:09:20;;;;;;;9.80;4.27;;;15.10;99.90;;;;;;5040375;28;20406;-73
2021/08/26 05:11:46;;;;;;;9.13;4.13;;;15.10;99.90;;;;;;5039368;28;20430;-72
2021/08/26 05:14:12;;;;;;;7.03;3.00;;;15.10;99.90;;;;;;5053561;28;20474;-72
2021/08/26 05:16:37;;;;;;;7.33;3.83;;;15.00;99.90;;;;;;5038617;28;20446;-73
2021/08/26 05:19:04;;;;;;;10.50;3.90;;;15.10;99.90;;;;;;5024360;28;20186;-73
2021/08/26 05:21:30;;;;;;;6.93;4.07;;;15.10;99.90;;;;;;5047997;28;20213;-73
2021/08/26 05:23:55;;;;;;;9.80;3.80;;;15.20;99.90;;;;;;5047306;28;20448;-72
2021/08/26 05:26:21;;;;;;;7.57;3.27;;;15.10;99.90;;;;;;5052425;28;20232;-72
2021/08/26 05:28:47;;;;;;;9.10;4.10;;;15.10;99.90;;;;;;5042852;28;20356;-72
2021/08/26 05:31:13;;;;;;;8.60;4.20;;;15.00;99.90;;;;;;5040738;28;20202;-73
2021/08/26 05:33:39;;;;;;;7.67;3.83;;;14.90;99.90;;;;;;5040061;28;20178;-72
2021/08/26 05:36:05;;;;;;;6.23;3.33;;;14.90;99.90;;;;;;5044189;28;20413;-73
2021/08/26 05:38:31;;;;;;;8.57;3.70;;;14.80;99.90;;;;;;5040935;28;20409;-73
2021/08/26 05:40:56;;;;;;;8.57;3.00;;;15.00;99.90;;;;;;5032105;28;20690;-74
2021/08/26 05:43:22;;;;;;;5.67;3.67;;;14.90;99.90;;;;;;5033757;28;20412;-73
2021/08/26 05:45:48;;;;;;;6.17;2.67;;;15.00;99.90;;;;;;5052354;28;20684;-72
2021/08/26 05:48:14;;;;;;;8.37;2.90;;;15.00;99.90;;;;;;5053099;28;20221;-73
2021/08/26 05:50:40;;;;;;;8.27;3.23;;;15.00;99.90;;;;;;5055095;28;20421;-72
2021/08/26 05:53:05;;;;;;;5.43;3.63;;;15.20;99.90;;;;;;5051875;28;20201;-75
2021/08/26 05:55:31;;;;;;;11.83;5.60;;;15.30;99.90;;;;;;5034577;28;20416;-73
2021/08/26 05:57:57;;;;;;;6.93;3.40;;;15.30;99.90;;;;;;5050237;28;20257;-72
2021/08/26 06:00:22;;;;;;;6.50;3.03;;;15.30;99.90;;;;;;5050750;28;20663;-72
2021/08/26 06:02:48;;;;;;;9.17;3.77;;;15.30;99.90;;;;;;5050806;28;20285;-72
2021/08/26 06:05:14;;;;;;;5.80;3.00;;;15.50;99.90;;;;;;5050081;28;20181;-72
2021/08/26 06:07:40;;;;;;;5.37;3.23;;;15.40;99.90;;;;;;5050055;28;20261;-74
2021/08/26 06:10:07;;;;;;;10.00;4.00;;;15.40;99.90;;;;;;5045357;28;20550;-72
2021/08/26 06:12:43;;;;;;;6.60;3.30;;;15.40;99.90;;;;;;5045021;28;20659;-72
2021/08/26 06:15:10;;;;;;;6.40;3.13;;;15.50;99.90;;;;;;5054727;28;20893;-71
2021/08/26 06:17:36;;;;;;;8.17;3.40;;;15.60;99.90;;;;;;5052031;28;20906;-74
2021/08/26 06:20:04;;;;;;;8.20;3.37;;;15.80;99.90;;;;;;5052252;28;20468;-73
2021/08/26 06:22:30;;;;;;;6.97;3.27;;;15.90;99.90;;;;;;5052377;28;20296;-72
2021/08/26 06:24:56;;;;;;;8.87;3.37;;;15.90;99.90;;;;;;5051358;28;20500;-73
2021/08/26 06:27:21;;;;;;;5.90;3.53;;;15.80;99.90;;;;;;5051467;28;20311;-73
2021/08/26 06:29:47;;;;;;;4.93;3.57;;;15.80;99.90;;;;;;5051377;28;20957;-73
2021/08/26 06:32:13;;;;;;;5.57;3.00;;;15.70;99.90;;;;;;5037410;28;20206;-73
2021/08/26 06:34:38;;;;;;;5.20;2.97;;;15.80;99.90;;;;;;5053012;28;20208;-73
2021/08/26 06:37:04;;;;;;;6.83;3.27;;;15.80;99.90;;;;;;5058342;28;20219;-74
2021/08/26 06:39:30;;;;;;;5.90;3.17;;;15.80;99.90;;;;;;5057324;28;20465;-72
2021/08/26 06:41:56;;;;;;;7.07;4.47;;;15.80;99.90;;;;;;5057017;28;20266;-72
2021/08/26 06:44:22;;;;;;;8.43;3.30;;;15.90;99.90;;;;;;5056985;28;20190;-73
2021/08/26 06:46:48;;;;;;;7.33;3.00;;;15.80;99.90;;;;;;5039676;28;20428;-73
2021/08/26 06:49:13;;;;;;;6.30;3.20;;;15.80;99.90;;;;;;5054391;28;20436;-73
2021/08/26 06:51:39;;;;;;;12.63;3.47;;;15.80;99.90;;;;;;5055434;28;20516;-72
2021/08/26 06:54:05;;;;;;;7.37;3.83;;;16.00;99.90;;;;;;5056538;28;20221;-73
2021/08/26 06:56:30;;;;;;;8.20;4.00;;;16.00;99.90;;;;;;5057455;28;20186;-72
2021/08/26 06:58:56;;;;;;;11.57;3.53;;;16.00;99.90;;;;;;5040836;28;20227;-73
2021/08/26 07:01:21;;;;;;;7.73;3.50;;;15.90;99.90;;;;;;5053836;28;20202;-73
2021/08/26 07:03:47;;;;;;;11.73;4.00;;;15.90;99.90;;;;;;5057982;28;20227;-73
2021/08/26 07:06:15;;;;;;;8.40;3.37;;;15.90;99.90;;;;;;5057354;28;20184;-72
2021/08/26 07:08:40;;;;;;;8.73;3.27;;;16.00;99.90;;;;;;5060757;28;20188;-73
2021/08/26 07:11:06;;;;;;;7.87;3.93;;;16.10;99.90;;;;;;5056930;28;20427;-72
2021/08/26 07:13:31;;;;;;;9.03;3.43;;;16.20;99.90;;;;;;5047579;28;20190;-72
2021/08/26 07:15:57;;;;;;;6.50;3.47;;;16.10;99.90;;;;;;5060005;28;20631;-72
2021/08/26 07:18:24;;;;;;;10.10;4.20;;;16.10;99.90;;;;;;5059977;28;20220;-72
2021/08/26 07:20:50;;;;;;;7.43;3.43;;;16.00;99.90;;;;;;5042739;28;20178;-72
2021/08/26 07:23:16;;;;;;;8.97;3.33;;;15.90;99.90;;;;;;5059916;28;20497;-73
2021/08/26 07:25:42;;;;;;;10.43;3.70;;;15.90;99.90;;;;;;5059709;28;20425;-73
2021/08/26 07:28:08;;;;;;;8.53;4.07;;;15.80;99.90;;;;;;5059626;28;20822;-71
2021/08/26 07:30:34;;;;;;;7.03;3.60;;;15.90;99.90;;;;;;5061063;28;20784;-73
2021/08/26 07:33:00;;;;;;;14.83;4.30;;;15.80;99.90;;;;;;5060033;28;20405;-73
2021/08/26 07:35:25;;;;;;;4.87;3.00;;;15.80;99.90;;;;;;5059987;28;20189;-73
2021/08/26 07:37:51;;;;;;;5.37;2.70;;;15.70;99.90;;;;;;5041453;28;20273;-73
2021/08/26 07:40:16;;;;;;;5.30;2.90;;;15.70;99.90;;;;;;5059393;28;20194;-73
2021/08/26 07:42:42;;;;;;;5.77;2.60;;;15.60;99.90;;;;;;5059016;28;20647;-73
2021/08/26 07:45:09;;;;;;;5.67;2.67;;;15.80;99.90;;;;;;5060015;28;20177;-73
2021/08/26 07:47:34;;;;;;;6.57;2.90;;;15.90;99.90;;;;;;5041697;28;20186;-73
2021/08/26 07:50:00;;;;;;;7.80;2.95;;;15.90;99.90;;;;;;5058400;28;20403;-73
2021/08/26 07:52:26;;;;;;;7.63;3.10;;;15.90;99.90;;;;;;5059748;28;20182;-72
2021/08/26 07:54:51;;;;;;;6.30;2.90;;;15.70;99.90;;;;;;5059197;28;20170;-73
2021/08/26 07:57:17;;;;;;;5.60;3.50;;;15.80;99.90;;;;;;5058272;28;20623;-72
2021/08/26 07:59:43;;;;;;;5.90;2.60;;;16.00;99.90;;;;;;5058022;28;20667;-73
2021/08/26 08:02:08;;;;;;;7.87;2.73;;;15.90;99.90;;;;;;5058861;28;20190;-73
2021/08/26 08:04:34;;;;;;;9.03;3.33;;;15.90;99.90;;;;;;5059025;28;20582;-72
2021/08/26 08:07:00;;;;;;;6.90;2.40;;;16.00;99.90;;;;;;5041590;28;20174;-73
2021/08/26 08:09:25;;;;;;;4.20;2.57;;;16.00;99.90;;;;;;5058530;28;20178;-73
2021/08/26 08:11:51;;;;;;;4.97;2.60;;;16.00;99.90;;;;;;5058506;28;20461;-72
2021/08/26 08:14:17;;;;;;;2.97;2.03;;;15.90;99.90;;;;;;5058568;28;20170;-72
2021/08/26 08:16:42;;;;;;;4.80;2.90;;;15.90;99.90;;;;;;5058586;28;20261;-72
2021/08/26 08:19:08;;;;;;;5.80;3.10;;;16.00;99.90;;;;;;5058126;28;20590;-73
2021/08/26 08:21:33;;;;;;;5.43;2.77;;;16.00;99.90;;;;;;5057738;28;20585;-72
2021/08/26 08:23:59;;;;;;;6.40;2.93;;;16.10;99.90;;;;;;5058993;28;20174;-73
2021/08/26 08:26:24;;;;;;;7.47;3.17;;;16.10;99.90;;;;;;5057473;28;20170;-73
2021/08/26 08:28:50;;;;;;;3.70;2.87;;;16.30;99.90;;;;;;5057935;28;20166;-73
2021/08/26 08:31:16;;;;;;;4.43;2.97;;;16.10;99.90;;;;;;5058411;28;20198;-74
2021/08/26 08:33:44;;;;;;;6.17;3.23;;;16.00;99.90;;;;;;5058853;28;20176;-73
2021/08/26 08:36:10;;;;;;;5.30;3.20;;;16.00;99.90;;;;;;5058324;28;20174;-74
2021/08/26 08:38:36;;;;;;;5.27;2.77;;;16.00;99.90;;;;;;5057663;28;20519;-73
2021/08/26 08:41:02;;;;;;;4.27;3.07;;;16.00;99.90;;;;;;5039217;28;20540;-73
2021/08/26 08:43:28;;;;;;;3.17;2.27;;;16.10;99.90;;;;;;5057113;28;20428;-73
2021/08/26 08:45:55;;;;;;;3.87;2.47;;;16.20;99.90;;;;;;5055662;28;20495;-73
2021/08/26 08:48:21;;;;;;;3.03;2.23;;;16.50;99.90;;;;;;5055701;28;20174;-75
2021/08/26 08:50:48;;;;;;;2.23;2.00;;;16.70;99.90;;;;;;5055773;28;20786;-73
2021/08/26 08:53:15;;;;;;;5.70;2.90;;;16.70;99.90;;;;;;5055159;28;20931;-73
2021/08/26 08:55:43;;;;;;;3.10;2.80;;;16.50;99.90;;;;;;5055001;28;20514;-73
2021/08/26 08:58:08;;;;;;;3.13;2.83;;;16.50;99.90;;;;;;5056297;28;20742;-73
2021/08/26 09:00:34;;;;;;;5.00;3.90;;;16.40;99.90;;;;;;5056326;28;20433;-73
2021/08/26 09:03:01;;;;;;;5.57;2.70;;;16.50;99.90;;;;;;5056880;28;20202;-73
2021/08/26 09:05:46;;;;;;;7.73;3.30;;;16.40;99.90;;;;;;5056148;28;20689;-73
2021/08/26 09:08:12;;;;;;;5.40;3.30;;;16.50;99.90;;;;;;5055783;28;20411;-73
2021/08/26 09:10:38;;;;;;;7.27;3.73;;;16.50;99.90;;;;;;5038546;28;20220;-73
2021/08/26 09:13:03;;;;;;;6.63;5.33;;;16.70;99.90;;;;;;5038595;28;20658;-74
2021/08/26 09:15:30;;;;;;;8.57;6.20;;;16.90;99.90;;;;;;5056429;28;20541;-73
2021/08/26 09:18:16;;;;;;;8.50;6.33;;;17.00;99.90;;;;;;5055393;28;20201;-73
2021/08/26 09:20:58;;;;;;;9.07;7.50;;;17.30;99.90;;;;;;5054846;28;20424;-73
2021/08/26 09:23:26;;;;;;;10.17;7.40;;;17.50;99.90;;;;;;5054849;28;20444;-72
2021/08/26 09:25:53;;;;;;;7.73;6.90;;;17.70;99.90;;;;;;5053995;28;20441;-73
2021/08/26 09:28:33;;;;;;;10.83;8.30;;;17.90;99.90;;;;;;5054855;28;20416;-73
2021/08/26 09:31:22;;;;;;;10.70;9.20;;;18.00;99.90;;;;;;5054312;28;20432;-73
2021/08/26 09:33:51;;;;;;;12.43;9.07;;;17.80;99.90;;;;;;5049607;28;20446;-71
2021/08/26 09:36:18;;;;;;;12.67;7.60;;;17.60;99.90;;;;;;5037006;28;20460;-74
2021/08/26 09:38:49;;;;;;;7.97;5.87;;;17.50;99.90;;;;;;5053591;28;20444;-73
2021/08/26 09:41:16;;;;;;;4.23;3.43;;;17.30;99.90;;;;;;5056617;28;20488;-73
2021/08/26 09:43:42;;;;;;;4.50;3.80;;;16.80;99.90;;;;;;5039666;28;20425;-73
2021/08/26 09:46:07;;;;;;;7.00;3.50;;;16.40;99.90;;;;;;5055845;28;20878;-73
2021/08/26 09:48:33;;;;;;;4.77;3.60;;;16.50;99.90;;;;;;5055329;28;20170;-73
2021/08/26 09:50:58;;;;;;;7.43;4.10;;;16.50;99.90;;;;;;5036977;28;20663;-72
2021/08/26 09:53:33;;;;;;;4.07;3.27;;;16.50;99.90;;;;;;5056587;28;20176;-73
2021/08/26 09:56:02;;;;;;;6.67;3.17;;;16.60;99.90;;;;;;5055715;28;20523;-73
2021/08/26 09:58:30;;;;;;;5.73;3.20;;;16.60;99.90;;;;;;5054877;28;20942;-73
2021/08/26 10:01:20;;;;;;;6.57;3.50;;;16.60;99.90;;;;;;5036574;28;20960;-73
2021/08/26 10:03:47;;;;;;;6.67;3.00;;;16.70;99.90;;;;;;5056647;28;20392;-72
2021/08/26 10:06:14;;;;;;;6.07;3.77;;;16.60;99.90;;;;;;5058700;28;20401;-72
2021/08/26 10:08:42;;;;;;;5.77;3.17;;;16.70;99.90;;;;;;5057943;28;20766;-74
2021/08/26 10:11:10;;;;;;;3.47;3.17;;;16.80;99.90;;;;;;5058980;28;20436;-72
2021/08/26 10:13:36;;;;;;;7.87;3.30;;;16.90;99.90;;;;;;5058831;28;20437;-72
2021/08/26 10:16:01;;;;;;;3.43;3.00;;;17.10;99.90;;;;;;5057907;28;20421;-74
2021/08/26 10:18:29;;;;;;;3.93;2.90;;;17.50;99.90;;;;;;5058140;28;20805;-74
2021/08/26 10:20:56;;;;;;;3.23;2.70;;;18.00;99.90;;;;;;5055134;28;20213;-73
2021/08/26 10:23:26;;;;;;;4.50;2.80;;;18.30;99.90;;;;;;5055836;28;20471;-72
2021/08/26 10:25:57;;;;;;;6.13;3.10;;;18.60;99.90;;;;;;5042515;28;20432;-73
2021/08/26 10:28:23;;;;;;;8.13;3.37;;;18.70;99.90;;;;;;5059451;28;20486;-72
2021/08/26 10:30:49;;;;;;;7.70;3.13;;;18.40;99.90;;;;;;5038551;28;20449;-72
2021/08/26 10:33:20;;;;;;;10.33;3.27;;;18.00;99.90;;;;;;5039555;28;20159;-73
2021/08/26 10:35:53;;;;;;;4.30;3.30;;;17.80;99.90;;;;;;5037164;28;20175;-73
2021/08/26 10:38:25;;;;;;;5.43;3.40;;;17.70;99.90;;;;;;5048956;28;20442;-75
2021/08/26 10:40:51;;;;;;;4.50;2.80;;;17.70;99.90;;;;;;5039474;28;20498;-72
2021/08/26 10:43:35;;;;;;;5.90;3.97;;;17.80;99.90;;;;;;5055634;28;20461;-74
2021/08/26 10:46:06;;;;;;;6.80;3.70;;;17.70;99.90;;;;;;5042860;28;20772;-73
2021/08/26 10:48:32;;;;;;;7.50;3.83;;;17.80;99.90;;;;;;5042142;28;20432;-72
2021/08/26 10:51:03;;;;;;;6.17;4.03;;;18.00;99.90;;;;;;5060217;28;20435;-72
2021/08/26 10:53:31;;;;;;;13.03;4.43;;;18.10;99.90;;;;;;5060677;28;20501;-73
2021/08/26 10:56:25;;;;;;;5.03;3.43;;;18.30;99.90;;;;;;5059466;28;20890;-73
2021/08/26 10:58:56;;;;;;;6.63;4.37;;;18.50;99.90;;;;;;5060278;28;20397;-72
2021/08/26 11:01:27;;;;;;;8.50;4.10;;;18.60;99.90;;;;;;5059662;28;20542;-72
2021/08/26 11:03:59;;;;;;;8.33;6.73;;;18.60;99.90;;;;;;5059293;28;20432;-71
2021/08/26 11:06:27;;;;;;;11.87;8.20;;;18.50;99.90;;;;;;5057740;28;20409;-72
2021/08/26 11:08:55;;;;;;;9.37;8.47;;;18.30;99.90;;;;;;5056957;28;20514;-72
2021/08/26 11:11:27;;;;;;;12.40;8.97;;;18.20;99.90;;;;;;5057553;28;20460;-73
2021/08/26 11:14:05;;;;;;;9.40;7.20;;;18.00;99.90;;;;;;5060388;28;20480;-72
2021/08/26 11:16:40;;;;;;;8.90;6.10;;;18.00;99.90;;;;;;5060495;28;20427;-73
2021/08/26 11:19:07;;;;;;;6.80;5.77;;;17.90;99.90;;;;;;5060372;28;20404;-73
2021/08/26 11:21:45;;;;;;;11.27;5.70;;;17.90;99.90;;;;;;5059904;28;20464;-73
2021/08/26 11:24:10;;;;;;;8.77;5.50;;;17.90;99.90;;;;;;5059899;28;20429;-73
2021/08/26 11:26:55;;;;;;;8.67;6.40;;;18.00;99.90;;;;;;5042457;28;20424;-73
2021/08/26 11:29:20;;;;;;;11.53;7.07;;;18.10;99.90;;;;;;5043100;28;20268;-71
2021/08/26 11:31:55;;;;;;;7.67;6.90;;;18.30;99.90;;;;;;5043735;28;20480;-73
2021/08/26 11:34:44;;;;;;;11.13;7.67;;;18.30;99.90;;;;;;5041806;28;20704;-72
2021/08/26 11:37:17;;;;;;;10.50;8.10;;;18.20;99.90;;;;;;5059846;28;20417;-72
2021/08/26 11:40:16;;;;;;;14.80;8.53;;;18.40;99.90;;;;;;5060973;28;20496;-72
2021/08/26 11:42:43;;;;;;;10.40;8.60;;;18.60;99.90;;;;;;5019484;28;20473;-72
2021/08/26 11:45:23;;;;;;;12.90;8.07;;;18.80;99.90;;;;;;5004399;28;20462;-74
2021/08/26 11:48:04;;;;;;;10.57;7.47;;;18.80;99.90;;;;;;5019069;28;20446;-73
2021/08/26 11:50:41;;;;;;;14.47;8.13;;;18.90;99.90;;;;;;5017612;28;20525;-72
2021/08/26 11:53:09;;;;;;;7.77;7.07;;;19.00;99.90;;;;;;5004369;28;20441;-74
2021/08/26 11:55:36;;;;;;;9.53;7.20;;;18.80;99.90;;;;;;5019169;28;20418;-73
2021/08/26 11:58:04;;;;;;;10.87;8.60;;;18.80;99.90;;;;;;5019799;28;20440;-71
2021/08/26 12:00:30;;;;;;;10.50;8.03;;;18.80;99.90;;;;;;5019536;28;20442;-72
2021/08/26 12:02:57;;;;;;;9.40;8.47;;;18.80;99.90;;;;;;5017827;28;20471;-72
2021/08/26 12:05:24;;;;;;;8.37;7.57;;;18.90;99.90;;;;;;5018410;28;20187;-73
2021/08/26 12:07:51;;;;;;;8.40;7.67;;;18.80;99.90;;;;;;5000196;28;20443;-72
2021/08/26 12:10:19;;;;;;;8.80;7.30;;;18.70;99.90;;;;;;5001389;28;20459;-74
2021/08/26 12:12:53;;;;;;;8.00;6.93;;;18.80;99.90;;;;;;5018869;28;20456;-72
2021/08/26 12:15:40;;;;;;;9.53;6.53;;;18.80;99.90;;;;;;5004117;28;20518;-72
2021/08/26 12:18:05;;;;;;;9.83;5.67;;;18.90;99.90;;;;;;5030208;28;20420;-72
2021/08/26 12:20:34;;;;;;;7.30;5.17;;;18.90;99.90;;;;;;5059072;28;20577;-71
2021/08/26 12:23:00;;;;;;;8.80;4.47;;;18.80;99.90;;;;;;5059394;28;20236;-74
2021/08/26 12:25:39;;;;;;;9.67;5.30;;;18.80;99.90;;;;;;5060520;28;20913;-73
2021/08/26 12:28:07;;;;;;;5.70;5.10;;;18.80;99.90;;;;;;5040554;28;20413;-73
2021/08/26 12:30:42;;;;;;;8.30;5.50;;;18.70;99.90;;;;;;5057262;28;20448;-73
2021/08/26 12:33:20;;;;;;;5.80;5.20;;;18.70;99.90;;;;;;5058310;28;20396;-73
2021/08/26 12:35:54;;;;;;;5.53;4.33;;;18.60;99.90;;;;;;5062811;28;20393;-73
2021/08/26 12:38:39;;;;;;;6.93;4.70;;;18.60;99.90;;;;;;5063827;28;20753;-72
2021/08/26 12:41:15;;;;;;;7.97;5.53;;;18.90;99.90;;;;;;5044532;28;20437;-73
2021/08/26 12:43:51;;;;;;;8.93;5.57;;;19.00;99.90;;;;;;5059553;28;20797;-73
2021/08/26 12:46:23;;;;;;;8.00;6.13;;;19.20;99.90;;;;;;5059649;28;20401;-72
2021/08/26 12:49:10;;;;;;;8.87;5.93;;;19.10;99.90;;;;;;5061875;28;20408;-72
2021/08/26 12:51:50;;;;;;;8.97;6.10;;;19.20;99.90;;;;;;5044949;28;20451;-73